sensor_id;sensor_type;location;lat;lon;timestamp;pressure;altitude;pressure_sealevel;temperature;humidity
67457;BME280;54319;52.038;4.640;2022-12-05T00:01:24;101943.91;;;1.74;100.00
67457;BME280;54319;52.038;4.640;2022-12-05T00:03:59;101951.72;;;1.75;100.00
67457;BME280;54319;52.038;4.640;2022-12-05T00:06:28;101951.78;;;1.77;100.00
67457;BME280;54319;52.038;4.640;2022-12-05T00:08:57;101941.53;;;1.78;100.00
67457;BME280;54319;52.038;4.640;2022-12-05T00:11:27;101940.69;;;1.79;100.00
67457;BME280;54319;52.038;4.640;2022-12-05T00:13:55;101941.63;;;1.81;100.00
67457;BME280;54319;52.038;4.640;2022-12-05T00:16:24;101940.84;;;1.82;100.00
67457;BME280;54319;52.038;4.640;2022-12-05T00:18:52;101943.47;;;1.84;100.00
67457;BME280;54319;52.038;4.640;2022-12-05T00:21:22;101941.78;;;1.84;100.00
67457;BME280;54319;52.038;4.640;2022-12-05T00:23:50;101946.19;;;1.87;100.00
67457;BME280;54319;52.038;4.640;2022-12-05T00:26:19;101947.06;;;1.88;100.00
67457;BME280;54319;52.038;4.640;2022-12-05T00:28:47;101943.72;;;1.90;100.00
67457;BME280;54319;52.038;4.640;2022-12-05T00:31:16;101945.50;;;1.91;100.00
67457;BME280;54319;52.038;4.640;2022-12-05T00:33:45;101938.63;;;1.92;100.00
67457;BME280;54319;52.038;4.640;2022-12-05T00:36:13;101947.34;;;1.94;100.00
67457;BME280;54319;52.038;4.640;2022-12-05T00:38:41;101956.03;;;1.96;100.00
67457;BME280;54319;52.038;4.640;2022-12-05T00:41:09;101946.66;;;1.98;100.00
67457;BME280;54319;52.038;4.640;2022-12-05T00:43:38;101944.06;;;1.98;100.00
67457;BME280;54319;52.038;4.640;2022-12-05T00:46:07;101954.53;;;2.01;100.00
67457;BME280;54319;52.038;4.640;2022-12-05T00:48:36;101957.19;;;2.02;100.00
67457;BME280;54319;52.038;4.640;2022-12-05T00:51:05;101946.00;;;2.03;100.00
67457;BME280;54319;52.038;4.640;2022-12-05T00:53:33;101949.47;;;2.04;100.00
67457;BME280;54319;52.038;4.640;2022-12-05T00:56:01;101950.47;;;2.08;100.00
67457;BME280;54319;52.038;4.640;2022-12-05T00:58:29;101954.03;;;2.10;100.00
67457;BME280;54319;52.038;4.640;2022-12-05T01:00:57;101952.31;;;2.10;100.00
67457;BME280;54319;52.038;4.640;2022-12-05T01:03:24;101956.72;;;2.13;100.00
67457;BME280;54319;52.038;4.640;2022-12-05T01:05:51;101961.88;;;2.13;100.00
67457;BME280;54319;52.038;4.640;2022-12-05T01:08:18;101955.91;;;2.14;100.00
67457;BME280;54319;52.038;4.640;2022-12-05T01:10:51;101950.75;;;2.14;100.00
67457;BME280;54319;52.038;4.640;2022-12-05T01:13:19;101953.44;;;2.17;100.00
67457;BME280;54319;52.038;4.640;2022-12-05T01:15:45;101949.16;;;2.17;100.00
67457;BME280;54319;52.038;4.640;2022-12-05T01:18:14;101955.25;;;2.19;100.00
67457;BME280;54319;52.038;4.640;2022-12-05T01:20:41;101949.22;;;2.19;100.00
67457;BME280;54319;52.038;4.640;2022-12-05T01:23:08;101955.41;;;2.22;100.00
67457;BME280;54319;52.038;4.640;2022-12-05T01:25:38;101951.94;;;2.22;100.00
67457;BME280;54319;52.038;4.640;2022-12-05T01:28:05;101945.94;;;2.23;100.00
67457;BME280;54319;52.038;4.640;2022-12-05T01:30:36;101941.53;;;2.20;100.00
67457;BME280;54319;52.038;4.640;2022-12-05T01:33:04;101947.59;;;2.21;100.00
67457;BME280;54319;52.038;4.640;2022-12-05T01:35:34;101947.59;;;2.21;100.00
67457;BME280;54319;52.038;4.640;2022-12-05T01:38:02;101950.25;;;2.22;100.00
67457;BME280;54319;52.038;4.640;2022-12-05T01:40:29;101959.75;;;2.23;100.00
67457;BME280;54319;52.038;4.640;2022-12-05T01:42:58;101955.44;;;2.24;100.00
67457;BME280;54319;52.038;4.640;2022-12-05T01:45:31;101949.41;;;2.23;100.00
67457;BME280;54319;52.038;4.640;2022-12-05T01:48:02;101952.00;;;2.23;100.00
67457;BME280;54319;52.038;4.640;2022-12-05T01:50:33;101955.53;;;2.25;100.00
67457;BME280;54319;52.038;4.640;2022-12-05T01:53:02;101958.09;;;2.25;100.00
67457;BME280;54319;52.038;4.640;2022-12-05T01:55:29;101960.69;;;2.25;100.00
67457;BME280;54319;52.038;4.640;2022-12-05T01:57:56;101957.31;;;2.26;100.00
67457;BME280;54319;52.038;4.640;2022-12-05T02:00:23;101958.09;;;2.25;100.00
67457;BME280;54319;52.038;4.640;2022-12-05T02:02:51;101953.81;;;2.26;100.00
67457;BME280;54319;52.038;4.640;2022-12-05T02:05:22;101964.22;;;2.27;100.00
67457;BME280;54319;52.038;4.640;2022-12-05T02:07:52;101953.88;;;2.27;100.00
67457;BME280;54319;52.038;4.640;2022-12-05T02:10:19;101962.53;;;2.28;100.00
67457;BME280;54319;52.038;4.640;2022-12-05T02:12:48;101962.59;;;2.30;100.00
67457;BME280;54319;52.038;4.640;2022-12-05T02:15:31;101961.78;;;2.31;100.00
67457;BME280;54319;52.038;4.640;2022-12-05T02:18:10;101961.78;;;2.31;100.00
67457;BME280;54319;52.038;4.640;2022-12-05T02:20:46;101962.66;;;2.31;100.00
67457;BME280;54319;52.038;4.640;2022-12-05T02:23:44;101957.50;;;2.31;100.00
67457;BME280;54319;52.038;4.640;2022-12-05T02:26:38;101954.06;;;2.32;100.00
67457;BME280;54319;52.038;4.640;2022-12-05T02:32:17;101949.84;;;2.34;100.00
67457;BME280;54319;52.038;4.640;2022-12-05T02:34:54;101951.56;;;2.34;100.00
67457;BME280;54319;52.038;4.640;2022-12-05T02:37:27;101950.72;;;2.35;100.00
67457;BME280;54319;52.038;4.640;2022-12-05T02:40:02;101961.06;;;2.35;100.00
67457;BME280;54319;52.038;4.640;2022-12-05T02:42:37;101957.66;;;2.36;100.00
67457;BME280;54319;52.038;4.640;2022-12-05T02:45:08;101955.09;;;2.36;100.00
67457;BME280;54319;52.038;4.640;2022-12-05T02:47:47;101959.38;;;2.35;100.00
67457;BME280;54319;52.038;4.640;2022-12-05T02:50:18;101961.06;;;2.35;100.00
67457;BME280;54319;52.038;4.640;2022-12-05T02:52:47;101961.97;;;2.35;100.00
67457;BME280;54319;52.038;4.640;2022-12-05T02:55:16;101963.72;;;2.36;100.00
67457;BME280;54319;52.038;4.640;2022-12-05T02:57:49;101962.00;;;2.37;100.00
67457;BME280;54319;52.038;4.640;2022-12-05T03:00:18;101969.78;;;2.37;100.00
67457;BME280;54319;52.038;4.640;2022-12-05T03:02:51;101969.84;;;2.38;100.00
67457;BME280;54319;52.038;4.640;2022-12-05T03:05:28;101967.25;;;2.38;100.00
67457;BME280;54319;52.038;4.640;2022-12-05T03:08:01;101966.41;;;2.39;100.00
67457;BME280;54319;52.038;4.640;2022-12-05T03:10:29;101963.84;;;2.39;100.00
67457;BME280;54319;52.038;4.640;2022-12-05T03:13:03;101966.50;;;2.41;100.00
67457;BME280;54319;52.038;4.640;2022-12-05T03:15:33;101965.69;;;2.42;100.00
67457;BME280;54319;52.038;4.640;2022-12-05T03:18:07;101970.91;;;2.43;100.00
67457;BME280;54319;52.038;4.640;2022-12-05T03:20:41;101964.91;;;2.44;100.00
67457;BME280;54319;52.038;4.640;2022-12-05T03:23:15;101966.63;;;2.44;100.00
67457;BME280;54319;52.038;4.640;2022-12-05T03:25:52;101963.22;;;2.45;100.00
67457;BME280;54319;52.038;4.640;2022-12-05T03:28:23;101964.09;;;2.45;100.00
67457;BME280;54319;52.038;4.640;2022-12-05T03:31:00;101973.63;;;2.46;100.00
67457;BME280;54319;52.038;4.640;2022-12-05T03:33:35;101964.16;;;2.47;100.00
67457;BME280;54319;52.038;4.640;2022-12-05T03:36:08;101973.66;;;2.48;100.00
67457;BME280;54319;52.038;4.640;2022-12-05T03:38:43;101978.84;;;2.48;100.00
67457;BME280;54319;52.038;4.640;2022-12-05T03:41:15;101978.03;;;2.49;100.00
67457;BME280;54319;52.038;4.640;2022-12-05T03:43:51;101978.03;;;2.49;100.00
67457;BME280;54319;52.038;4.640;2022-12-05T03:46:23;101980.63;;;2.49;100.00
67457;BME280;54319;52.038;4.640;2022-12-05T03:48:56;101987.69;;;2.53;100.00
67457;BME280;54319;52.038;4.640;2022-12-05T03:51:27;101977.28;;;2.52;100.00
67457;BME280;54319;52.038;4.640;2022-12-05T03:54:01;101985.09;;;2.53;100.00
67457;BME280;54319;52.038;4.640;2022-12-05T03:56:34;101979.84;;;2.52;100.00
67457;BME280;54319;52.038;4.640;2022-12-05T03:59:07;101988.50;;;2.52;100.00
67457;BME280;54319;52.038;4.640;2022-12-05T04:01:38;101981.63;;;2.53;100.00
67457;BME280;54319;52.038;4.640;2022-12-05T04:04:11;101990.28;;;2.53;100.00
67457;BME280;54319;52.038;4.640;2022-12-05T04:06:39;101992.03;;;2.54;100.00
67457;BME280;54319;52.038;4.640;2022-12-05T04:09:14;101989.44;;;2.54;100.00
67457;BME280;54319;52.038;4.640;2022-12-05T04:11:47;101987.81;;;2.56;100.00
67457;BME280;54319;52.038;4.640;2022-12-05T04:14:21;101991.34;;;2.58;100.00
67457;BME280;54319;52.038;4.640;2022-12-05T04:16:55;101993.84;;;2.57;100.00
67457;BME280;54319;52.038;4.640;2022-12-05T04:19:32;101989.63;;;2.59;100.00
67457;BME280;54319;52.038;4.640;2022-12-05T04:22:14;101987.88;;;2.58;100.00
67457;BME280;54319;52.038;4.640;2022-12-05T04:24:42;101995.72;;;2.59;100.00
67457;BME280;54319;52.038;4.640;2022-12-05T04:27:38;101992.28;;;2.60;100.00
67457;BME280;54319;52.038;4.640;2022-12-05T04:30:08;101990.63;;;2.62;100.00
67457;BME280;54319;52.038;4.640;2022-12-05T04:32:39;101989.81;;;2.63;100.00
67457;BME280;54319;52.038;4.640;2022-12-05T04:35:14;101983.88;;;2.66;100.00
67457;BME280;54319;52.038;4.640;2022-12-05T04:37:45;101983.88;;;2.66;100.00
67457;BME280;54319;52.038;4.640;2022-12-05T04:40:18;101982.19;;;2.66;100.00
67457;BME280;54319;52.038;4.640;2022-12-05T04:42:48;101986.53;;;2.67;100.00
67457;BME280;54319;52.038;4.640;2022-12-05T04:45:18;101983.94;;;2.67;100.00
67457;BME280;54319;52.038;4.640;2022-12-05T04:47:51;101983.13;;;2.68;100.00
67457;BME280;54319;52.038;4.640;2022-12-05T04:50:22;101983.13;;;2.68;100.00
67457;BME280;54319;52.038;4.640;2022-12-05T04:52:52;101986.66;;;2.71;100.00
67457;BME280;54319;52.038;4.640;2022-12-05T04:55:22;101985.81;;;2.72;100.00
67457;BME280;54319;52.038;4.640;2022-12-05T04:57:56;101984.09;;;2.72;100.00
67457;BME280;54319;52.038;4.640;2022-12-05T05:00:28;101985.88;;;2.73;100.00
67457;BME280;54319;52.038;4.640;2022-12-05T05:03:02;101988.53;;;2.75;100.00
67457;BME280;54319;52.038;4.640;2022-12-05T05:05:31;101993.72;;;2.75;100.00
67457;BME280;54319;52.038;4.640;2022-12-05T05:08:01;101991.16;;;2.76;100.00
67457;BME280;54319;52.038;4.640;2022-12-05T05:10:32;101988.66;;;2.78;100.00
67457;BME280;54319;52.038;4.640;2022-12-05T05:13:00;101985.28;;;2.80;100.00
67457;BME280;54319;52.038;4.640;2022-12-05T05:15:27;101984.53;;;2.83;100.00
67457;BME280;54319;52.038;4.640;2022-12-05T05:17:54;101989.69;;;2.83;100.00
67457;BME280;54319;52.038;4.640;2022-12-05T05:20:20;101990.66;;;2.85;100.00
67457;BME280;54319;52.038;4.640;2022-12-05T05:22:53;101982.06;;;2.86;100.00
67457;BME280;54319;52.038;4.640;2022-12-05T05:25:22;101985.53;;;2.86;100.00
67457;BME280;54319;52.038;4.640;2022-12-05T05:27:50;101991.66;;;2.88;100.00
67457;BME280;54319;52.038;4.640;2022-12-05T05:30:20;101998.59;;;2.89;100.00
67457;BME280;54319;52.038;4.640;2022-12-05T05:32:49;101999.50;;;2.90;100.00
67457;BME280;54319;52.038;4.640;2022-12-05T05:35:16;101998.66;;;2.91;100.00
67457;BME280;54319;52.038;4.640;2022-12-05T05:37:43;102000.44;;;2.92;100.00
67457;BME280;54319;52.038;4.640;2022-12-05T05:40:12;101998.72;;;2.93;100.00
67457;BME280;54319;52.038;4.640;2022-12-05T05:42:41;102002.25;;;2.95;100.00
67457;BME280;54319;52.038;4.640;2022-12-05T05:45:09;101997.97;;;2.95;100.00
67457;BME280;54319;52.038;4.640;2022-12-05T05:47:36;102003.22;;;2.97;100.00
67457;BME280;54319;52.038;4.640;2022-12-05T05:50:05;102007.53;;;2.98;100.00
67457;BME280;54319;52.038;4.640;2022-12-05T05:52:33;102000.72;;;3.00;100.00
67457;BME280;54319;52.038;4.640;2022-12-05T05:55:01;102001.66;;;3.02;100.00
67457;BME280;54319;52.038;4.640;2022-12-05T05:57:31;102002.59;;;3.04;100.00
67457;BME280;54319;52.038;4.640;2022-12-05T05:59:59;102008.66;;;3.04;100.00
67457;BME280;54319;52.038;4.640;2022-12-05T06:02:30;102003.47;;;3.04;100.00
67457;BME280;54319;52.038;4.640;2022-12-05T06:04:58;102009.59;;;3.06;100.00
67457;BME280;54319;52.038;4.640;2022-12-05T06:07:25;102014.84;;;3.08;100.00
67457;BME280;54319;52.038;4.640;2022-12-05T06:09:52;102010.56;;;3.08;100.00
67457;BME280;54319;52.038;4.640;2022-12-05T06:12:19;102007.13;;;3.09;100.00
67457;BME280;54319;52.038;4.640;2022-12-05T06:14:48;102002.00;;;3.11;100.00
67457;BME280;54319;52.038;4.640;2022-12-05T06:17:15;101996.91;;;3.13;100.00
67457;BME280;54319;52.038;4.640;2022-12-05T06:19:44;101998.66;;;3.14;100.00
67457;BME280;54319;52.038;4.640;2022-12-05T06:22:10;102006.50;;;3.15;100.00
67457;BME280;54319;52.038;4.640;2022-12-05T06:24:38;102009.16;;;3.17;100.00
67457;BME280;54319;52.038;4.640;2022-12-05T06:27:05;102005.78;;;3.19;100.00
67457;BME280;54319;52.038;4.640;2022-12-05T06:29:33;102006.66;;;3.20;100.00
67457;BME280;54319;52.038;4.640;2022-12-05T06:32:01;102005.84;;;3.21;100.00
67457;BME280;54319;52.038;4.640;2022-12-05T06:34:29;102010.34;;;3.26;100.00
67457;BME280;54319;52.038;4.640;2022-12-05T06:36:57;102000.00;;;3.26;100.00
67457;BME280;54319;52.038;4.640;2022-12-05T06:39:25;102006.19;;;3.30;100.00
67457;BME280;54319;52.038;4.640;2022-12-05T06:41:51;102016.66;;;3.33;100.00
67457;BME280;54319;52.038;4.640;2022-12-05T06:44:19;102015.78;;;3.33;100.00
67457;BME280;54319;52.038;4.640;2022-12-05T06:46:46;102014.13;;;3.35;100.00
67457;BME280;54319;52.038;4.640;2022-12-05T06:49:15;102018.47;;;3.36;100.00
67457;BME280;54319;52.038;4.640;2022-12-05T06:51:41;102016.00;;;3.39;100.00
67457;BME280;54319;52.038;4.640;2022-12-05T06:54:10;102016.09;;;3.42;100.00
67457;BME280;54319;52.038;4.640;2022-12-05T06:56:37;102022.31;;;3.45;100.00
67457;BME280;54319;52.038;4.640;2022-12-05T06:59:04;102027.59;;;3.48;100.00
67457;BME280;54319;52.038;4.640;2022-12-05T07:01:31;102028.66;;;3.54;100.00
67457;BME280;54319;52.038;4.640;2022-12-05T07:04:08;102025.13;;;3.51;100.00
67457;BME280;54319;52.038;4.640;2022-12-05T07:06:37;102026.09;;;3.55;100.00
67457;BME280;54319;52.038;4.640;2022-12-05T07:09:05;102026.09;;;3.55;100.00
67457;BME280;54319;52.038;4.640;2022-12-05T07:11:32;102031.34;;;3.57;100.00
67457;BME280;54319;52.038;4.640;2022-12-05T07:14:00;102038.28;;;3.58;100.00
67457;BME280;54319;52.038;4.640;2022-12-05T07:16:28;102032.34;;;3.60;100.00
67457;BME280;54319;52.038;4.640;2022-12-05T07:18:55;102029.78;;;3.62;100.00
67457;BME280;54319;52.038;4.640;2022-12-05T07:21:22;102033.22;;;3.61;100.00
67457;BME280;54319;52.038;4.640;2022-12-05T07:23:51;102035.91;;;3.64;100.00
67457;BME280;54319;52.038;4.640;2022-12-05T07:26:20;102038.50;;;3.64;100.00
67457;BME280;54319;52.038;4.640;2022-12-05T07:28:49;102042.03;;;3.66;100.00
67457;BME280;54319;52.038;4.640;2022-12-05T07:31:18;102043.81;;;3.67;100.00
67457;BME280;54319;52.038;4.640;2022-12-05T07:33:47;102043.75;;;3.65;100.00
67457;BME280;54319;52.038;4.640;2022-12-05T07:36:16;102049.00;;;3.67;100.00
67457;BME280;54319;52.038;4.640;2022-12-05T07:38:45;102050.75;;;3.68;100.00
67457;BME280;54319;52.038;4.640;2022-12-05T07:41:18;102048.22;;;3.69;100.00
67457;BME280;54319;52.038;4.640;2022-12-05T07:43:45;102051.75;;;3.71;100.00
67457;BME280;54319;52.038;4.640;2022-12-05T07:46:12;102058.69;;;3.72;100.00
67457;BME280;54319;52.038;4.640;2022-12-05T07:48:40;102055.34;;;3.75;100.00
67457;BME280;54319;52.038;4.640;2022-12-05T07:51:08;102060.50;;;3.75;100.00
67457;BME280;54319;52.038;4.640;2022-12-05T07:53:37;102056.19;;;3.74;100.00
67457;BME280;54319;52.038;4.640;2022-12-05T07:56:05;102057.13;;;3.76;100.00
67457;BME280;54319;52.038;4.640;2022-12-05T07:58:34;102062.41;;;3.79;100.00
67457;BME280;54319;52.038;4.640;2022-12-05T08:01:06;102055.50;;;3.80;100.00
67457;BME280;54319;52.038;4.640;2022-12-05T08:03:34;102055.50;;;3.80;100.00
67457;BME280;54319;52.038;4.640;2022-12-05T08:06:01;102059.03;;;3.82;100.00
67457;BME280;54319;52.038;4.640;2022-12-05T08:08:29;102059.03;;;3.82;100.00
67457;BME280;54319;52.038;4.640;2022-12-05T08:11:01;102060.81;;;3.83;100.00
67457;BME280;54319;52.038;4.640;2022-12-05T08:13:28;102065.16;;;3.84;100.00
67457;BME280;54319;52.038;4.640;2022-12-05T08:16:02;102063.50;;;3.86;100.00
67457;BME280;54319;52.038;4.640;2022-12-05T08:18:30;102060.03;;;3.85;100.00
67457;BME280;54319;52.038;4.640;2022-12-05T08:21:00;102066.94;;;3.85;100.00
67457;BME280;54319;52.038;4.640;2022-12-05T08:23:28;102067.81;;;3.85;100.00
67457;BME280;54319;52.038;4.640;2022-12-05T08:25:55;102068.69;;;3.86;100.00
67457;BME280;54319;52.038;4.640;2022-12-05T08:28:23;102069.63;;;3.88;100.00
67457;BME280;54319;52.038;4.640;2022-12-05T08:30:49;102067.09;;;3.89;100.00
67457;BME280;54319;52.038;4.640;2022-12-05T08:33:19;102068.03;;;3.91;100.00
67457;BME280;54319;52.038;4.640;2022-12-05T08:35:48;102078.41;;;3.91;100.00
67457;BME280;54319;52.038;4.640;2022-12-05T08:38:16;102082.75;;;3.92;100.00
67457;BME280;54319;52.038;4.640;2022-12-05T08:40:46;102078.50;;;3.95;100.00
67457;BME280;54319;52.038;4.640;2022-12-05T08:43:13;102083.69;;;3.95;100.00
67457;BME280;54319;52.038;4.640;2022-12-05T08:45:40;102082.88;;;3.96;100.00
67457;BME280;54319;52.038;4.640;2022-12-05T08:48:08;102081.22;;;3.98;100.00
67457;BME280;54319;52.038;4.640;2022-12-05T08:50:45;102087.28;;;3.98;100.00
67457;BME280;54319;52.038;4.640;2022-12-05T08:53:13;102086.44;;;3.99;100.00
67457;BME280;54319;52.038;4.640;2022-12-05T08:55:40;102100.31;;;4.00;100.00
67457;BME280;54319;52.038;4.640;2022-12-05T08:58:07;102102.06;;;4.01;100.00
67457;BME280;54319;52.038;4.640;2022-12-05T09:00:34;102102.16;;;4.04;100.00
67457;BME280;54319;52.038;4.640;2022-12-05T09:03:01;102099.56;;;4.04;100.00
67457;BME280;54319;52.038;4.640;2022-12-05T09:05:29;102109.16;;;4.05;100.00
67457;BME280;54319;52.038;4.640;2022-12-05T09:07:58;102105.72;;;4.06;100.00
67457;BME280;54319;52.038;4.640;2022-12-05T09:10:25;102104.03;;;4.06;100.00
67457;BME280;54319;52.038;4.640;2022-12-05T09:12:52;102102.31;;;4.07;100.00
67457;BME280;54319;52.038;4.640;2022-12-05T09:15:19;102104.13;;;4.09;100.00
67457;BME280;54319;52.038;4.640;2022-12-05T09:17:46;102104.19;;;4.11;100.00
67457;BME280;54319;52.038;4.640;2022-12-05T09:20:14;102110.34;;;4.14;100.00
67457;BME280;54319;52.038;4.640;2022-12-05T09:22:42;102118.19;;;4.16;100.00
67457;BME280;54319;52.038;4.640;2022-12-05T09:25:10;102114.75;;;4.17;100.00
67457;BME280;54319;52.038;4.640;2022-12-05T09:27:38;102116.47;;;4.17;100.00
67457;BME280;54319;52.038;4.640;2022-12-05T09:30:07;102114.75;;;4.17;100.00
67457;BME280;54319;52.038;4.640;2022-12-05T09:32:34;102120.84;;;4.18;100.00
67457;BME280;54319;52.038;4.640;2022-12-05T09:35:01;102115.69;;;4.19;100.00
67457;BME280;54319;52.038;4.640;2022-12-05T09:37:28;102120.06;;;4.20;100.00
67457;BME280;54319;52.038;4.640;2022-12-05T09:39:55;102121.88;;;4.23;100.00
67457;BME280;54319;52.038;4.640;2022-12-05T09:42:32;102121.09;;;4.25;100.00
67457;BME280;54319;52.038;4.640;2022-12-05T09:45:10;102130.66;;;4.26;100.00
67457;BME280;54319;52.038;4.640;2022-12-05T09:47:51;102129.09;;;4.31;100.00
67457;BME280;54319;52.038;4.640;2022-12-05T09:50:22;102136.03;;;4.31;100.00
67457;BME280;54319;52.038;4.640;2022-12-05T09:53:01;102144.75;;;4.33;100.00
67457;BME280;54319;52.038;4.640;2022-12-05T09:55:35;102140.44;;;4.33;100.00
67457;BME280;54319;52.038;4.640;2022-12-05T10:00:59;102138.78;;;4.36;100.00
67457;BME280;54319;52.038;4.640;2022-12-05T10:03:34;102140.59;;;4.38;100.00
67457;BME280;54319;52.038;4.640;2022-12-05T10:06:18;102138.94;;;4.40;100.00
67457;BME280;54319;52.038;4.640;2022-12-05T10:09:00;102129.47;;;4.42;100.00
67457;BME280;54319;52.038;4.640;2022-12-05T10:11:40;102137.34;;;4.44;100.00
67457;BME280;54319;52.038;4.640;2022-12-05T10:14:18;102138.22;;;4.44;100.00
67457;BME280;54319;52.038;4.640;2022-12-05T10:16:48;102139.09;;;4.45;100.00
67457;BME280;54319;52.038;4.640;2022-12-05T10:19:24;102137.44;;;4.47;100.00
67457;BME280;54319;52.038;4.640;2022-12-05T10:21:55;102140.03;;;4.47;100.00
67457;BME280;54319;52.038;4.640;2022-12-05T10:24:29;102134.00;;;4.48;100.00
67457;BME280;54319;52.038;4.640;2022-12-05T10:26:59;102134.16;;;4.52;100.00
67457;BME280;54319;52.038;4.640;2022-12-05T10:29:32;102135.91;;;4.53;100.00
67457;BME280;54319;52.038;4.640;2022-12-05T10:32:05;102137.78;;;4.58;100.00
67457;BME280;54319;52.038;4.640;2022-12-05T10:34:39;102148.34;;;4.62;100.00
67457;BME280;54319;52.038;4.640;2022-12-05T10:37:13;102140.63;;;4.65;100.00
67457;BME280;54319;52.038;4.640;2022-12-05T10:39:41;102144.00;;;4.61;100.00
67457;BME280;54319;52.038;4.640;2022-12-05T10:42:12;102143.09;;;4.61;100.00
67457;BME280;54319;52.038;4.640;2022-12-05T10:44:41;102144.00;;;4.61;100.00
67457;BME280;54319;52.038;4.640;2022-12-05T10:47:08;102140.59;;;4.64;100.00
67457;BME280;54319;52.038;4.640;2022-12-05T10:49:37;102136.19;;;4.61;100.00
67457;BME280;54319;52.038;4.640;2022-12-05T10:52:03;102129.28;;;4.62;100.00
67457;BME280;54319;52.038;4.640;2022-12-05T10:54:36;102133.69;;;4.64;100.00
67457;BME280;54319;52.038;4.640;2022-12-05T10:57:19;102127.66;;;4.65;100.00
67457;BME280;54319;52.038;4.640;2022-12-05T10:59:49;102126.00;;;4.67;100.00
67457;BME280;54319;52.038;4.640;2022-12-05T11:02:22;102130.38;;;4.68;100.00
67457;BME280;54319;52.038;4.640;2022-12-05T11:04:51;102124.34;;;4.69;100.00
67457;BME280;54319;52.038;4.640;2022-12-05T11:07:28;102122.78;;;4.74;100.00
67457;BME280;54319;52.038;4.640;2022-12-05T11:09:57;102124.47;;;4.74;100.00
67457;BME280;54319;52.038;4.640;2022-12-05T11:12:26;102121.00;;;4.73;100.00
67457;BME280;54319;52.038;4.640;2022-12-05T11:15:00;102125.41;;;4.74;100.00
67457;BME280;54319;52.038;4.640;2022-12-05T11:17:31;102128.03;;;4.76;100.00
67457;BME280;54319;52.038;4.640;2022-12-05T11:19:59;102119.28;;;4.74;100.00
67457;BME280;54319;52.038;4.640;2022-12-05T11:22:31;102128.00;;;4.74;100.00
67457;BME280;54319;52.038;4.640;2022-12-05T11:24:59;102122.78;;;4.74;100.00
67457;BME280;54319;52.038;4.640;2022-12-05T11:27:28;102132.34;;;4.75;100.00
67457;BME280;54319;52.038;4.640;2022-12-05T11:30:00;102126.34;;;4.77;100.00
67457;BME280;54319;52.038;4.640;2022-12-05T11:32:28;102123.72;;;4.77;100.00
67457;BME280;54319;52.038;4.640;2022-12-05T11:35:02;102119.56;;;4.82;100.00
67457;BME280;54319;52.038;4.640;2022-12-05T11:37:35;102127.34;;;4.82;100.00
67457;BME280;54319;52.038;4.640;2022-12-05T11:40:13;102125.56;;;4.81;100.00
67457;BME280;54319;52.038;4.640;2022-12-05T11:42:53;102126.41;;;4.80;100.00
67457;BME280;54319;52.038;4.640;2022-12-05T11:45:36;102115.19;;;4.81;100.00
67457;BME280;54319;52.038;4.640;2022-12-05T11:48:19;102112.50;;;4.78;100.00
67457;BME280;54319;52.038;4.640;2022-12-05T11:51:02;102118.53;;;4.77;100.00
67457;BME280;54319;52.038;4.640;2022-12-05T11:53:43;102115.09;;;4.78;100.00
67457;BME280;54319;52.038;4.640;2022-12-05T11:56:24;102115.09;;;4.78;100.00
67457;BME280;54319;52.038;4.640;2022-12-05T11:59:11;102122.03;;;4.79;100.00
67457;BME280;54319;52.038;4.640;2022-12-05T12:01:50;102122.88;;;4.78;100.00
67457;BME280;54319;52.038;4.640;2022-12-05T12:04:30;102125.56;;;4.81;100.00
67457;BME280;54319;52.038;4.640;2022-12-05T12:07:11;102120.56;;;4.85;100.00
67457;BME280;54319;52.038;4.640;2022-12-05T12:09:46;102127.72;;;4.94;100.00
67457;BME280;54319;52.038;4.640;2022-12-05T12:12:22;102122.75;;;5.00;100.00
67457;BME280;54319;52.038;4.640;2022-12-05T12:14:58;102126.47;;;5.08;100.00
67457;BME280;54319;52.038;4.640;2022-12-05T12:17:33;102124.88;;;5.12;100.00
67457;BME280;54319;52.038;4.640;2022-12-05T12:20:18;102129.38;;;5.17;100.00
67457;BME280;54319;52.038;4.640;2022-12-05T12:23:04;102126.88;;;5.21;100.00
67457;BME280;54319;52.038;4.640;2022-12-05T12:25:39;102124.38;;;5.24;100.00
67457;BME280;54319;52.038;4.640;2022-12-05T12:28:24;102127.03;;;5.27;100.00
67457;BME280;54319;52.038;4.640;2022-12-05T12:31:01;102125.22;;;5.23;100.00
67457;BME280;54319;52.038;4.640;2022-12-05T12:33:37;102119.97;;;5.21;100.00
67457;BME280;54319;52.038;4.640;2022-12-05T12:36:14;102121.56;;;5.17;100.00
67457;BME280;54319;52.038;4.640;2022-12-05T12:38:59;102118.97;;;5.17;100.00
67457;BME280;54319;52.038;4.640;2022-12-05T12:41:44;102109.31;;;5.13;100.00
67457;BME280;54319;52.038;4.640;2022-12-05T12:44:32;102116.22;;;5.13;100.00
67457;BME280;54319;52.038;4.640;2022-12-05T12:47:07;102116.22;;;5.13;100.00
67457;BME280;54319;52.038;4.640;2022-12-05T12:49:48;102116.09;;;5.08;100.00
67457;BME280;54319;52.038;4.640;2022-12-05T12:52:23;102117.09;;;5.13;100.00
67457;BME280;54319;52.038;4.640;2022-12-05T12:55:10;102109.28;;;5.12;100.00
67457;BME280;54319;52.038;4.640;2022-12-05T12:57:54;102111.09;;;5.14;100.00
67457;BME280;54319;52.038;4.640;2022-12-05T13:00:33;102111.91;;;5.13;100.00
67457;BME280;54319;52.038;4.640;2022-12-05T13:03:09;102116.38;;;5.17;100.00
67457;BME280;54319;52.038;4.640;2022-12-05T13:05:43;102111.22;;;5.19;100.00
67457;BME280;54319;52.038;4.640;2022-12-05T13:08:17;102102.56;;;5.19;100.00
67457;BME280;54319;52.038;4.640;2022-12-05T13:10:47;102113.75;;;5.16;100.00
67457;BME280;54319;52.038;4.640;2022-12-05T13:13:17;102109.41;;;5.16;100.00
67457;BME280;54319;52.038;4.640;2022-12-05T13:15:46;102106.84;;;5.18;100.00
67457;BME280;54319;52.038;4.640;2022-12-05T13:18:18;102110.38;;;5.20;100.00